sensor_id;sensor_type;location;lat;lon;timestamp;pressure;altitude;pressure_sealevel;temperature;humidity
8051;BME280;4068;42.158;24.732;2023-09-19T00:02:02;100077.75;;;16.15;100.00
8051;BME280;4068;42.158;24.732;2023-09-19T00:04:31;100080.88;;;16.11;100.00
8051;BME280;4068;42.158;24.732;2023-09-19T00:06:58;100075.53;;;16.11;100.00
8051;BME280;4068;42.158;24.732;2023-09-19T00:09:23;100080.59;;;16.14;100.00
8051;BME280;4068;42.158;24.732;2023-09-19T00:11:51;100075.91;;;16.16;100.00
8051;BME280;4068;42.158;24.732;2023-09-19T00:14:17;100067.06;;;16.15;100.00
8051;BME280;4068;42.158;24.732;2023-09-19T00:16:42;100043.22;;;15.84;100.00
8051;BME280;4068;42.158;24.732;2023-09-19T00:19:07;100069.78;;;15.96;100.00
8051;BME280;4068;42.158;24.732;2023-09-19T00:21:34;100072.63;;;15.94;100.00
8051;BME280;4068;42.158;24.732;2023-09-19T00:24:01;100072.91;;;15.91;100.00
8051;BME280;4068;42.158;24.732;2023-09-19T00:26:26;100055.75;;;15.84;100.00
8051;BME280;4068;42.158;24.732;2023-09-19T00:28:55;100068.97;;;15.85;100.00
8051;BME280;4068;42.158;24.732;2023-09-19T00:31:22;100069.13;;;15.84;100.00
8051;BME280;4068;42.158;24.732;2023-09-19T00:33:48;100075.16;;;15.96;100.00
8051;BME280;4068;42.158;24.732;2023-09-19T00:36:14;100066.72;;;15.91;100.00
8051;BME280;4068;42.158;24.732;2023-09-19T00:38:39;100074.91;;;15.89;100.00
8051;BME280;4068;42.158;24.732;2023-09-19T00:41:04;100068.69;;;15.88;100.00
8051;BME280;4068;42.158;24.732;2023-09-19T00:43:30;100069.56;;;15.89;100.00
8051;BME280;4068;42.158;24.732;2023-09-19T00:45:59;100072.50;;;15.86;100.00
8051;BME280;4068;42.158;24.732;2023-09-19T00:48:26;100052.78;;;15.77;100.00
8051;BME280;4068;42.158;24.732;2023-09-19T00:50:54;100063.22;;;15.80;100.00
8051;BME280;4068;42.158;24.732;2023-09-19T00:53:21;100059.69;;;15.70;100.00
8051;BME280;4068;42.158;24.732;2023-09-19T00:55:49;100033.28;;;15.47;100.00
8051;BME280;4068;42.158;24.732;2023-09-19T00:58:17;100063.94;;;15.63;100.00
8051;BME280;4068;42.158;24.732;2023-09-19T01:00:43;100059.72;;;15.60;100.00
8051;BME280;4068;42.158;24.732;2023-09-19T01:03:10;100042.16;;;15.48;100.00
8051;BME280;4068;42.158;24.732;2023-09-19T01:05:38;100062.00;;;15.55;100.00
8051;BME280;4068;42.158;24.732;2023-09-19T01:08:04;100062.28;;;15.52;100.00
8051;BME280;4068;42.158;24.732;2023-09-19T01:10:29;100058.75;;;15.51;100.00
8051;BME280;4068;42.158;24.732;2023-09-19T01:13:08;100057.47;;;15.46;100.00
8051;BME280;4068;42.158;24.732;2023-09-19T01:29:23;100055.41;;;15.20;100.00
8051;BME280;4068;42.158;24.732;2023-09-19T01:31:59;100050.91;;;15.21;100.00
8051;BME280;4068;42.158;24.732;2023-09-19T01:34:54;100044.31;;;15.15;100.00
8051;BME280;4068;42.158;24.732;2023-09-19T01:37:22;100019.00;;;14.99;100.00
8051;BME280;4068;42.158;24.732;2023-09-19T01:39:58;100052.03;;;15.18;100.00
8051;BME280;4068;42.158;24.732;2023-09-19T01:50:59;100050.47;;;14.96;100.00
8051;BME280;4068;42.158;24.732;2023-09-19T01:56:53;100046.66;;;14.89;100.00
8051;BME280;4068;42.158;24.732;2023-09-19T01:59:34;100044.00;;;14.79;100.00
8051;BME280;4068;42.158;24.732;2023-09-19T02:02:00;100046.50;;;14.71;100.00
8051;BME280;4068;42.158;24.732;2023-09-19T02:04:27;100043.69;;;14.62;100.00
8051;BME280;4068;42.158;24.732;2023-09-19T02:06:53;100019.47;;;14.44;100.00
8051;BME280;4068;42.158;24.732;2023-09-19T02:09:18;100052.94;;;14.58;100.00
8051;BME280;4068;42.158;24.732;2023-09-19T02:11:44;100040.56;;;14.57;100.00
8051;BME280;4068;42.158;24.732;2023-09-19T02:14:09;100041.59;;;14.66;100.00
8051;BME280;4068;42.158;24.732;2023-09-19T02:16:35;100042.84;;;14.62;100.00
8051;BME280;4068;42.158;24.732;2023-09-19T02:19:01;100043.22;;;14.57;100.00
8051;BME280;4068;42.158;24.732;2023-09-19T02:21:30;100022.13;;;14.44;100.00
8051;BME280;4068;42.158;24.732;2023-09-19T02:23:56;100027.75;;;14.51;100.00
8051;BME280;4068;42.158;24.732;2023-09-19T02:26:21;100031.53;;;14.48;100.00
8051;BME280;4068;42.158;24.732;2023-09-19T02:28:49;100034.91;;;14.50;100.00
8051;BME280;4068;42.158;24.732;2023-09-19T02:31:15;100027.75;;;14.51;100.00
8051;BME280;4068;42.158;24.732;2023-09-19T02:33:41;100035.50;;;14.54;100.00
8051;BME280;4068;42.158;24.732;2023-09-19T02:36:07;100026.34;;;14.47;100.00
8051;BME280;4068;42.158;24.732;2023-09-19T02:38:34;100024.66;;;14.46;100.00
8051;BME280;4068;42.158;24.732;2023-09-19T02:40:59;100047.06;;;14.64;100.00
8051;BME280;4068;42.158;24.732;2023-09-19T02:43:24;100008.38;;;14.49;100.00
8051;BME280;4068;42.158;24.732;2023-09-19T02:45:51;100027.22;;;14.57;100.00
8051;BME280;4068;42.158;24.732;2023-09-19T02:48:18;100037.75;;;14.59;100.00
8051;BME280;4068;42.158;24.732;2023-09-19T02:50:44;100039.44;;;14.60;100.00
8051;BME280;4068;42.158;24.732;2023-09-19T02:53:11;100004.84;;;14.39;100.00
8051;BME280;4068;42.158;24.732;2023-09-19T02:55:38;100041.13;;;14.61;100.00
8051;BME280;4068;42.158;24.732;2023-09-19T02:58:06;100042.25;;;14.58;100.00
8051;BME280;4068;42.158;24.732;2023-09-19T03:00:33;100007.34;;;14.30;100.00
8051;BME280;4068;42.158;24.732;2023-09-19T03:03:01;100029.03;;;14.47;100.00
8051;BME280;4068;42.158;24.732;2023-09-19T03:05:27;100030.69;;;14.38;100.00
8051;BME280;4068;42.158;24.732;2023-09-19T03:07:56;100033.91;;;14.42;100.00
8051;BME280;4068;42.158;24.732;2023-09-19T03:10:22;100033.91;;;14.42;100.00
8051;BME280;4068;42.158;24.732;2023-09-19T03:12:48;100026.47;;;14.36;100.00
8051;BME280;4068;42.158;24.732;2023-09-19T03:15:15;100035.72;;;14.31;100.00
8051;BME280;4068;42.158;24.732;2023-09-19T03:17:47;100015.16;;;14.22;100.00
8051;BME280;4068;42.158;24.732;2023-09-19T03:20:13;100002.69;;;14.23;100.00
8051;BME280;4068;42.158;24.732;2023-09-19T03:22:41;100021.81;;;14.38;100.00
8051;BME280;4068;42.158;24.732;2023-09-19T03:25:07;100011.25;;;14.26;100.00
8051;BME280;4068;42.158;24.732;2023-09-19T03:27:36;100025.03;;;14.31;100.00
8051;BME280;4068;42.158;24.732;2023-09-19T03:30:02;100019.41;;;14.25;100.00
8051;BME280;4068;42.158;24.732;2023-09-19T03:32:31;100028.78;;;14.19;100.00
8051;BME280;4068;42.158;24.732;2023-09-19T03:34:57;100024.53;;;14.07;100.00
8051;BME280;4068;42.158;24.732;2023-09-19T03:37:22;100019.03;;;13.98;100.00
8051;BME280;4068;42.158;24.732;2023-09-19T03:39:48;100021.25;;;13.93;100.00
8051;BME280;4068;42.158;24.732;2023-09-19T03:42:13;100014.63;;;13.88;100.00
8051;BME280;4068;42.158;24.732;2023-09-19T03:44:39;100025.44;;;13.86;100.00
8051;BME280;4068;42.158;24.732;2023-09-19T03:47:04;100024.25;;;13.79;100.00
8051;BME280;4068;42.158;24.732;2023-09-19T03:49:30;100024.41;;;13.77;100.00
8051;BME280;4068;42.158;24.732;2023-09-19T03:51:56;100033.63;;;13.73;100.00
8051;BME280;4068;42.158;24.732;2023-09-19T03:54:21;100035.34;;;13.74;100.00
8051;BME280;4068;42.158;24.732;2023-09-19T03:56:46;100022.41;;;13.70;100.00
8051;BME280;4068;42.158;24.732;2023-09-19T03:59:12;100038.00;;;13.74;100.00
8051;BME280;4068;42.158;24.732;2023-09-19T04:01:38;100040.59;;;13.64;100.00
8051;BME280;4068;42.158;24.732;2023-09-19T04:04:06;100033.16;;;13.58;100.00
8051;BME280;4068;42.158;24.732;2023-09-19T04:06:35;100029.03;;;13.54;100.00
8051;BME280;4068;42.158;24.732;2023-09-19T04:09:01;100034.25;;;13.56;100.00
8051;BME280;4068;42.158;24.732;2023-09-19T04:11:27;100042.66;;;13.61;100.00
8051;BME280;4068;42.158;24.732;2023-09-19T04:13:52;100032.00;;;13.61;100.00
8051;BME280;4068;42.158;24.732;2023-09-19T04:16:18;100040.88;;;13.61;100.00
8051;BME280;4068;42.158;24.732;2023-09-19T04:18:43;100038.00;;;13.74;100.00
8051;BME280;4068;42.158;24.732;2023-09-19T04:21:09;99992.41;;;13.77;100.00
8051;BME280;4068;42.158;24.732;2023-09-19T04:23:34;100025.78;;;14.03;100.00
8051;BME280;4068;42.158;24.732;2023-09-19T04:26:00;100028.88;;;14.08;100.00
8051;BME280;4068;42.158;24.732;2023-09-19T04:28:25;100027.41;;;14.25;100.00
8051;BME280;4068;42.158;24.732;2023-09-19T04:30:53;100014.47;;;14.20;100.00
8051;BME280;4068;42.158;24.732;2023-09-19T04:33:19;100007.31;;;14.21;100.00
8051;BME280;4068;42.158;24.732;2023-09-19T04:35:44;100017.84;;;14.22;100.00
8051;BME280;4068;42.158;24.732;2023-09-19T04:38:10;100045.44;;;14.42;100.00
8051;BME280;4068;42.158;24.732;2023-09-19T04:40:35;100028.84;;;14.39;100.00
8051;BME280;4068;42.158;24.732;2023-09-19T04:43:01;100036.31;;;14.45;100.00
8051;BME280;4068;42.158;24.732;2023-09-19T04:45:27;100042.91;;;14.50;100.00
8051;BME280;4068;42.158;24.732;2023-09-19T04:47:53;100022.44;;;14.51;100.00
8051;BME280;4068;42.158;24.732;2023-09-19T04:50:19;100018.91;;;14.60;100.00
8051;BME280;4068;42.158;24.732;2023-09-19T04:52:50;100042.88;;;14.81;100.00
8051;BME280;4068;42.158;24.732;2023-09-19T04:55:17;100043.16;;;14.78;100.00
8051;BME280;4068;42.158;24.732;2023-09-19T04:57:48;100041.19;;;14.80;100.00
8051;BME280;4068;42.158;24.732;2023-09-19T05:00:18;100051.31;;;14.87;100.00
8051;BME280;4068;42.158;24.732;2023-09-19T05:02:45;100048.38;;;14.99;100.00
8051;BME280;4068;42.158;24.732;2023-09-19T05:05:11;100048.50;;;15.08;100.00
8051;BME280;4068;42.158;24.732;2023-09-19T05:07:39;100046.69;;;15.18;100.00
8051;BME280;4068;42.158;24.732;2023-09-19T05:10:05;100048.50;;;15.17;100.00
8051;BME280;4068;42.158;24.732;2023-09-19T05:12:34;100038.53;;;15.29;100.00
8051;BME280;4068;42.158;24.732;2023-09-19T05:14:59;100029.38;;;15.32;100.00
8051;BME280;4068;42.158;24.732;2023-09-19T05:17:26;100059.47;;;15.53;100.00
8051;BME280;4068;42.158;24.732;2023-09-19T05:19:52;100056.19;;;15.69;100.00
8051;BME280;4068;42.158;24.732;2023-09-19T05:22:18;100053.66;;;15.68;100.00
8051;BME280;4068;42.158;24.732;2023-09-19T05:24:44;100055.34;;;15.79;100.00
8051;BME280;4068;42.158;24.732;2023-09-19T05:27:12;100065.88;;;15.90;100.00
8051;BME280;4068;42.158;24.732;2023-09-19T05:29:38;100056.38;;;16.05;100.00
8051;BME280;4068;42.158;24.732;2023-09-19T05:32:03;100055.06;;;16.19;100.00
8051;BME280;4068;42.158;24.732;2023-09-19T05:34:30;100055.03;;;16.29;100.00
8051;BME280;4068;42.158;24.732;2023-09-19T05:36:56;100025.03;;;16.26;100.00
8051;BME280;4068;42.158;24.732;2023-09-19T05:39:21;100064.63;;;16.50;100.00
8051;BME280;4068;42.158;24.732;2023-09-19T05:41:48;100066.81;;;16.64;100.00
8051;BME280;4068;42.158;24.732;2023-09-19T05:44:13;100060.94;;;16.79;100.00
8051;BME280;4068;42.158;24.732;2023-09-19T05:46:39;100069.22;;;16.85;100.00
8051;BME280;4068;42.158;24.732;2023-09-19T05:49:05;100058.50;;;16.85;100.00
8051;BME280;4068;42.158;24.732;2023-09-19T05:51:30;100053.94;;;16.96;99.49
8051;BME280;4068;42.158;24.732;2023-09-19T05:53:56;100077.00;;;17.24;99.39
8051;BME280;4068;42.158;24.732;2023-09-19T05:56:22;100059.22;;;17.23;99.21
8051;BME280;4068;42.158;24.732;2023-09-19T05:58:48;100062.06;;;17.22;100.00
8051;BME280;4068;42.158;24.732;2023-09-19T06:01:14;100056.00;;;17.38;100.00
8051;BME280;4068;42.158;24.732;2023-09-19T06:03:40;100052.78;;;17.34;100.00
8051;BME280;4068;42.158;24.732;2023-09-19T06:06:05;100041.59;;;17.39;100.00
8051;BME280;4068;42.158;24.732;2023-09-19T06:08:34;100044.78;;;17.60;100.00
8051;BME280;4068;42.158;24.732;2023-09-19T06:10:59;100027.94;;;17.76;99.40
8051;BME280;4068;42.158;24.732;2023-09-19T06:13:28;100025.63;;;17.82;98.82
8051;BME280;4068;42.158;24.732;2023-09-19T06:15:57;100038.06;;;18.09;97.33
8051;BME280;4068;42.158;24.732;2023-09-19T06:18:23;100028.31;;;18.08;97.56
8051;BME280;4068;42.158;24.732;2023-09-19T06:20:51;100044.38;;;18.34;96.25
8051;BME280;4068;42.158;24.732;2023-09-19T06:23:17;100042.41;;;18.44;96.16
8051;BME280;4068;42.158;24.732;2023-09-19T06:25:45;100049.69;;;18.69;96.07
8051;BME280;4068;42.158;24.732;2023-09-19T06:28:10;100048.72;;;18.86;94.96
8051;BME280;4068;42.158;24.732;2023-09-19T06:30:37;100048.09;;;19.09;94.77
8051;BME280;4068;42.158;24.732;2023-09-19T06:33:06;100045.94;;;19.37;94.28
8051;BME280;4068;42.158;24.732;2023-09-19T06:35:34;100027.75;;;19.47;92.74
8051;BME280;4068;42.158;24.732;2023-09-19T06:38:03;100039.69;;;19.61;92.34
8051;BME280;4068;42.158;24.732;2023-09-19T06:40:29;100042.53;;;19.85;90.27
8051;BME280;4068;42.158;24.732;2023-09-19T06:42:56;100041.16;;;19.97;89.85
8051;BME280;4068;42.158;24.732;2023-09-19T06:45:22;100022.50;;;19.87;88.78
8051;BME280;4068;42.158;24.732;2023-09-19T06:47:52;100034.78;;;19.90;89.29
8051;BME280;4068;42.158;24.732;2023-09-19T06:50:18;100036.63;;;19.89;90.11
8051;BME280;4068;42.158;24.732;2023-09-19T06:52:45;100022.50;;;19.95;89.53
8051;BME280;4068;42.158;24.732;2023-09-19T06:55:14;100034.44;;;19.85;90.20
8051;BME280;4068;42.158;24.732;2023-09-19T06:57:44;100032.72;;;20.08;89.84
8051;BME280;4068;42.158;24.732;2023-09-19T07:00:11;100030.66;;;20.18;89.21
8051;BME280;4068;42.158;24.732;2023-09-19T07:02:58;100025.78;;;20.14;88.95
8051;BME280;4068;42.158;24.732;2023-09-19T07:05:29;100017.84;;;20.21;88.61
8051;BME280;4068;42.158;24.732;2023-09-19T07:07:59;100022.47;;;20.35;87.65
8051;BME280;4068;42.158;24.732;2023-09-19T07:10:26;100028.81;;;20.50;86.77
8051;BME280;4068;42.158;24.732;2023-09-19T07:12:58;100030.47;;;20.60;86.83
8051;BME280;4068;42.158;24.732;2023-09-19T07:15:25;100025.53;;;20.63;86.53
8051;BME280;4068;42.158;24.732;2023-09-19T07:17:51;100025.88;;;20.68;85.49
8051;BME280;4068;42.158;24.732;2023-09-19T07:20:18;100024.69;;;20.71;85.29
8051;BME280;4068;42.158;24.732;2023-09-19T07:22:44;99994.69;;;20.74;83.98
8051;BME280;4068;42.158;24.732;2023-09-19T07:25:09;100020.41;;;20.85;84.25
8051;BME280;4068;42.158;24.732;2023-09-19T07:27:35;100028.50;;;21.08;83.24
8051;BME280;4068;42.158;24.732;2023-09-19T07:30:00;100030.63;;;21.13;83.70
8051;BME280;4068;42.158;24.732;2023-09-19T07:32:26;100029.25;;;21.17;82.69
8051;BME280;4068;42.158;24.732;2023-09-19T07:34:51;100031.91;;;21.40;82.77
8051;BME280;4068;42.158;24.732;2023-09-19T07:37:17;99997.91;;;21.16;80.99
8051;BME280;4068;42.158;24.732;2023-09-19T07:39:42;100020.94;;;21.42;81.76
8051;BME280;4068;42.158;24.732;2023-09-19T07:42:08;100013.34;;;21.45;80.95
8051;BME280;4068;42.158;24.732;2023-09-19T07:44:35;100001.94;;;21.73;81.12
8051;BME280;4068;42.158;24.732;2023-09-19T07:47:01;100002.59;;;21.90;79.73
8051;BME280;4068;42.158;24.732;2023-09-19T07:49:28;100002.47;;;22.13;78.96
8051;BME280;4068;42.158;24.732;2023-09-19T07:51:54;99976.44;;;22.05;76.10
8051;BME280;4068;42.158;24.732;2023-09-19T07:54:20;99995.69;;;22.32;74.99
8051;BME280;4068;42.158;24.732;2023-09-19T07:56:46;99993.38;;;22.14;75.27
8051;BME280;4068;42.158;24.732;2023-09-19T07:59:12;99970.66;;;22.09;76.44
8051;BME280;4068;42.158;24.732;2023-09-19T08:01:39;99980.53;;;22.16;76.07
8051;BME280;4068;42.158;24.732;2023-09-19T08:04:07;99985.81;;;22.39;76.83
8051;BME280;4068;42.158;24.732;2023-09-19T08:06:32;99965.94;;;22.47;75.54
8051;BME280;4068;42.158;24.732;2023-09-19T08:08:57;99975.75;;;22.70;74.07
8051;BME280;4068;42.158;24.732;2023-09-19T08:11:23;99976.88;;;22.39;73.42
8051;BME280;4068;42.158;24.732;2023-09-19T08:13:49;99976.38;;;22.50;74.99
8051;BME280;4068;42.158;24.732;2023-09-19T08:16:16;99969.06;;;22.87;72.96
8051;BME280;4068;42.158;24.732;2023-09-19T08:18:47;99971.75;;;23.31;72.36
8051;BME280;4068;42.158;24.732;2023-09-19T08:21:13;99965.84;;;23.49;71.24
8051;BME280;4068;42.158;24.732;2023-09-19T08:23:39;99965.09;;;23.68;69.34
8051;BME280;4068;42.158;24.732;2023-09-19T08:26:06;99922.28;;;23.43;68.73
8051;BME280;4068;42.158;24.732;2023-09-19T08:28:33;99952.00;;;24.07;67.83
8051;BME280;4068;42.158;24.732;2023-09-19T08:31:06;99962.72;;;24.28;67.10
8051;BME280;4068;42.158;24.732;2023-09-19T08:33:35;99956.53;;;24.41;66.00
8051;BME280;4068;42.158;24.732;2023-09-19T08:36:02;99927.16;;;23.97;66.22
8051;BME280;4068;42.158;24.732;2023-09-19T08:38:34;99946.38;;;24.08;66.68
8051;BME280;4068;42.158;24.732;2023-09-19T08:41:01;99942.47;;;24.18;66.48
8051;BME280;4068;42.158;24.732;2023-09-19T08:43:30;99945.06;;;23.91;66.30
8051;BME280;4068;42.158;24.732;2023-09-19T08:46:07;99929.94;;;24.10;65.05
8051;BME280;4068;42.158;24.732;2023-09-19T08:48:34;99909.72;;;24.12;65.72
8051;BME280;4068;42.158;24.732;2023-09-19T08:51:07;99935.34;;;24.03;64.31
8051;BME280;4068;42.158;24.732;2023-09-19T08:53:51;99931.56;;;23.98;64.65
8051;BME280;4068;42.158;24.732;2023-09-19T08:56:20;99937.22;;;23.68;65.22
8051;BME280;4068;42.158;24.732;2023-09-19T08:58:53;99926.69;;;23.51;65.23
8051;BME280;4068;42.158;24.732;2023-09-19T09:01:20;99933.22;;;23.07;67.14
8051;BME280;4068;42.158;24.732;2023-09-19T09:03:56;99929.59;;;23.15;67.09
8051;BME280;4068;42.158;24.732;2023-09-19T09:06:23;99933.25;;;23.35;66.75
8051;BME280;4068;42.158;24.732;2023-09-19T09:08:52;99923.13;;;23.44;65.70
8051;BME280;4068;42.158;24.732;2023-09-19T09:11:18;99903.19;;;23.52;66.01
8051;BME280;4068;42.158;24.732;2023-09-19T09:13:45;99916.88;;;23.85;64.51
8051;BME280;4068;42.158;24.732;2023-09-19T09:16:12;99893.25;;;24.07;63.54
8051;BME280;4068;42.158;24.732;2023-09-19T09:18:39;99916.22;;;24.25;63.26
8051;BME280;4068;42.158;24.732;2023-09-19T09:21:05;99907.69;;;24.28;62.87
8051;BME280;4068;42.158;24.732;2023-09-19T09:23:30;99905.66;;;24.57;62.45
8051;BME280;4068;42.158;24.732;2023-09-19T09:25:58;99895.28;;;24.74;61.31
8051;BME280;4068;42.158;24.732;2023-09-19T09:28:29;99889.84;;;24.80;60.34
8051;BME280;4068;42.158;24.732;2023-09-19T09:30:56;99885.28;;;24.94;61.62
8051;BME280;4068;42.158;24.732;2023-09-19T09:33:23;99863.13;;;24.91;60.47
8051;BME280;4068;42.158;24.732;2023-09-19T09:35:54;99885.84;;;25.23;59.54
8051;BME280;4068;42.158;24.732;2023-09-19T09:38:26;99867.69;;;25.30;59.32
8051;BME280;4068;42.158;24.732;2023-09-19T09:40:57;99877.59;;;25.77;57.85
8051;BME280;4068;42.158;24.732;2023-09-19T09:43:40;99870.78;;;25.99;56.13
8051;BME280;4068;42.158;24.732;2023-09-19T09:46:16;99850.81;;;25.80;55.85
8051;BME280;4068;42.158;24.732;2023-09-19T09:48:48;99859.53;;;25.96;55.62
8051;BME280;4068;42.158;24.732;2023-09-19T09:52:04;99835.03;;;26.09;55.56
8051;BME280;4068;42.158;24.732;2023-09-19T09:55:01;99838.47;;;26.30;54.42
8051;BME280;4068;42.158;24.732;2023-09-19T09:57:31;99857.59;;;26.42;54.31
8051;BME280;4068;42.158;24.732;2023-09-19T09:59:58;99829.19;;;25.99;54.71
8051;BME280;4068;42.158;24.732;2023-09-19T10:02:35;99841.06;;;25.73;55.48
8051;BME280;4068;42.158;24.732;2023-09-19T10:05:16;99842.59;;;25.48;57.18
8051;BME280;4068;42.158;24.732;2023-09-19T10:07:46;99840.72;;;25.42;57.04
8051;BME280;4068;42.158;24.732;2023-09-19T10:10:36;99843.91;;;25.32;57.04
8051;BME280;4068;42.158;24.732;2023-09-19T10:13:10;99843.44;;;25.49;57.22
8051;BME280;4068;42.158;24.732;2023-09-19T10:15:42;99837.91;;;25.76;57.20
8051;BME280;4068;42.158;24.732;2023-09-19T10:18:14;99843.56;;;25.74;55.59
8051;BME280;4068;42.158;24.732;2023-09-19T10:20:44;99841.09;;;26.11;54.55
8051;BME280;4068;42.158;24.732;2023-09-19T10:23:11;99836.28;;;26.39;53.22
8051;BME280;4068;42.158;24.732;2023-09-19T10:25:41;99833.16;;;26.67;52.34
8051;BME280;4068;42.158;24.732;2023-09-19T10:28:11;99837.75;;;26.92;51.60
8051;BME280;4068;42.158;24.732;2023-09-19T10:30:38;99830.31;;;27.06;51.57
8051;BME280;4068;42.158;24.732;2023-09-19T10:33:09;99825.41;;;27.33;50.92
8051;BME280;4068;42.158;24.732;2023-09-19T10:35:39;99821.56;;;27.41;50.51
8051;BME280;4068;42.158;24.732;2023-09-19T10:38:10;99811.63;;;27.28;50.33
8051;BME280;4068;42.158;24.732;2023-09-19T10:40:37;99806.66;;;27.43;50.32
8051;BME280;4068;42.158;24.732;2023-09-19T10:43:20;99798.94;;;27.59;50.43
8051;BME280;4068;42.158;24.732;2023-09-19T10:45:47;99800.38;;;27.61;48.64
8051;BME280;4068;42.158;24.732;2023-09-19T10:48:15;99789.75;;;27.41;49.52
8051;BME280;4068;42.158;24.732;2023-09-19T10:56:09;99779.81;;;28.07;49.26
8051;BME280;4068;42.158;24.732;2023-09-19T10:58:42;99785.66;;;28.23;48.23
8051;BME280;4068;42.158;24.732;2023-09-19T11:01:10;99783.50;;;28.13;48.07
8051;BME280;4068;42.158;24.732;2023-09-19T11:03:40;99777.03;;;28.26;47.62
8051;BME280;4068;42.158;24.732;2023-09-19T11:06:11;99769.94;;;28.25;48.13
8051;BME280;4068;42.158;24.732;2023-09-19T11:11:46;99762.00;;;28.35;47.63
8051;BME280;4068;42.158;24.732;2023-09-19T11:14:29;99759.50;;;28.46;46.61
8051;BME280;4068;42.158;24.732;2023-09-19T11:30:38;99707.19;;;28.96;45.02
8051;BME280;4068;42.158;24.732;2023-09-19T11:33:28;99732.09;;;29.00;44.11
8051;BME280;4068;42.158;24.732;2023-09-19T11:36:16;99722.13;;;29.46;43.74
8051;BME280;4068;42.158;24.732;2023-09-19T11:46:53;99714.94;;;30.37;41.06
8051;BME280;4068;42.158;24.732;2023-09-19T11:49:26;99702.69;;;30.39;41.09
8051;BME280;4068;42.158;24.732;2023-09-19T11:51:56;99691.19;;;30.37;41.05
8051;BME280;4068;42.158;24.732;2023-09-19T11:54:21;99708.56;;;30.65;40.81
8051;BME280;4068;42.158;24.732;2023-09-19T11:56:53;99697.13;;;30.90;40.26
8051;BME280;4068;42.158;24.732;2023-09-19T11:59:23;99688.75;;;30.58;40.36
8051;BME280;4068;42.158;24.732;2023-09-19T12:01:54;99691.00;;;30.83;40.50
8051;BME280;4068;42.158;24.732;2023-09-19T12:04:35;99683.31;;;31.02;40.26
8051;BME280;4068;42.158;24.732;2023-09-19T12:07:08;99685.88;;;30.70;39.91
8051;BME280;4068;42.158;24.732;2023-09-19T12:09:44;99671.56;;;30.62;39.96
8051;BME280;4068;42.158;24.732;2023-09-19T12:12:19;99674.56;;;30.61;39.83
8051;BME280;4068;42.158;24.732;2023-09-19T12:14:49;99681.44;;;30.63;40.06
8051;BME280;4068;42.158;24.732;2023-09-19T12:17:16;99669.41;;;30.64;39.90
8051;BME280;4068;42.158;24.732;2023-09-19T12:19:55;99660.06;;;30.60;39.93
8051;BME280;4068;42.158;24.732;2023-09-19T12:22:20;99668.19;;;30.55;39.75
8051;BME280;4068;42.158;24.732;2023-09-19T12:24:46;99667.28;;;30.33;40.21
8051;BME280;4068;42.158;24.732;2023-09-19T12:27:12;99664.94;;;30.02;40.85
8051;BME280;4068;42.158;24.732;2023-09-19T12:29:46;99668.22;;;30.04;41.11
8051;BME280;4068;42.158;24.732;2023-09-19T12:32:12;99638.66;;;29.84;40.71
8051;BME280;4068;42.158;24.732;2023-09-19T12:34:39;99667.66;;;30.02;40.92
8051;BME280;4068;42.158;24.732;2023-09-19T12:37:14;99667.50;;;29.92;40.75
8051;BME280;4068;42.158;24.732;2023-09-19T12:39:50;99659.75;;;29.72;41.38
8051;BME280;4068;42.158;24.732;2023-09-19T12:42:20;99663.47;;;29.83;41.22
8051;BME280;4068;42.158;24.732;2023-09-19T12:44:48;99659.75;;;29.72;41.86
8051;BME280;4068;42.158;24.732;2023-09-19T12:47:16;99648.91;;;29.77;41.16
8051;BME280;4068;42.158;24.732;2023-09-19T12:52:38;99639.31;;;29.91;40.36
8051;BME280;4068;42.158;24.732;2023-09-19T12:55:04;99646.44;;;29.92;40.21
8051;BME280;4068;42.158;24.732;2023-09-19T12:57:32;99624.75;;;29.69;40.68
8051;BME280;4068;42.158;24.732;2023-09-19T13:00:03;99640.22;;;29.63;40.90
8051;BME280;4068;42.158;24.732;2023-09-19T13:02:36;99641.50;;;29.89;41.52
8051;BME280;4068;42.158;24.732;2023-09-19T13:05:01;99637.91;;;29.72;40.98
8051;BME280;4068;42.158;24.732;2023-09-19T13:07:42;99627.28;;;29.75;41.56
8051;BME280;4068;42.158;24.732;2023-09-19T13:10:13;99633.59;;;29.76;41.17
8051;BME280;4068;42.158;24.732;2023-09-19T13:12:42;99638.72;;;29.55;40.42
8051;BME280;4068;42.158;24.732;2023-09-19T13:15:13;99636.88;;;29.44;41.26
8051;BME280;4068;42.158;24.732;2023-09-19T13:17:46;99630.47;;;29.38;40.79
8051;BME280;4068;42.158;24.732;2023-09-19T13:20:26;99630.09;;;29.47;40.76
8051;BME280;4068;42.158;24.732;2023-09-19T13:22:57;99625.66;;;29.74;40.86
8051;BME280;4068;42.158;24.732;2023-09-19T13:25:33;99631.88;;;29.87;40.71
8051;BME280;4068;42.158;24.732;2023-09-19T13:28:00;99620.50;;;29.78;40.59
8051;BME280;4068;42.158;24.732;2023-09-19T13:30:29;99614.78;;;29.79;40.11
8051;BME280;4068;42.158;24.732;2023-09-19T13:33:08;99620.41;;;29.73;41.00
8051;BME280;4068;42.158;24.732;2023-09-19T13:35:35;99611.97;;;29.40;40.56
8051;BME280;4068;42.158;24.732;2023-09-19T13:38:01;99601.72;;;29.19;39.26
8051;BME280;4068;42.158;24.732;2023-09-19T13:40:27;99587.78;;;29.03;39.76
8051;BME280;4068;42.158;24.732;2023-09-19T13:42:56;99606.22;;;29.25;39.33
8051;BME280;4068;42.158;24.732;2023-09-19T13:45:22;99602.28;;;29.21;39.41
8051;BME280;4068;42.158;24.732;2023-09-19T13:47:50;99599.22;;;29.17;40.08
8051;BME280;4068;42.158;24.732;2023-09-19T13:50:15;99596.16;;;29.14;40.26
8051;BME280;4068;42.158;24.732;2023-09-19T13:52:42;99599.28;;;29.05;40.12
8051;BME280;4068;42.158;24.732;2023-09-19T13:55:08;99588.38;;;29.05;40.17
8051;BME280;4068;42.158;24.732;2023-09-19T13:57:33;99588.47;;;29.10;40.23
8051;BME280;4068;42.158;24.732;2023-09-19T13:59:59;99583.50;;;29.07;40.59
8051;BME280;4068;42.158;24.732;2023-09-19T14:02:24;99582.13;;;28.93;39.84
8051;BME280;4068;42.158;24.732;2023-09-19T14:04:51;99585.34;;;28.90;40.31
8051;BME280;4068;42.158;24.732;2023-09-19T14:07:16;99575.28;;;28.79;39.96